Jay, Florida
Current Conditions -  °F | °C
As of 9:56 AM on Tuesday 27 Jan 2015 (Local Time) from KNSE Reporting Station
Clear Clear  
Wind Chill: 56°   Ceiling: Unl
Heat Index: 56°   Visibility: 10mi
Dew Point: 37°   Wind: 13mph
Humidity: 49%   Direction: 330°NNW
Pressure: 30.08"   Gusts: NA
Location:  30.95°N, 87.15°W
Report Text: KNSE 271556Z 33011KT 10SM CLR 13/03 A3008 RMK AO2 SLP173 FU DSNT N T01330028 $
Loading
Personal Weather Stations






























Interactive Weather Map New forecast layout! Learn more

10-Day Weather Forecast

Advertisements
Track Severe Weather on mobile